sensor_id;sensor_type;location;lat;lon;timestamp;pressure;altitude;pressure_sealevel;temperature;humidity
67980;BME280;54760;47.490;19.030;2022-10-16T00:01:11;100549.88;;;16.70;58.81
67980;BME280;54760;47.490;19.030;2022-10-16T00:03:37;100550.03;;;16.66;58.89
67980;BME280;54760;47.490;19.030;2022-10-16T00:06:02;100545.50;;;16.60;59.02
67980;BME280;54760;47.490;19.030;2022-10-16T00:08:28;100542.44;;;16.79;58.84
67980;BME280;54760;47.490;19.030;2022-10-16T00:10:58;100546.28;;;16.82;58.63
67980;BME280;54760;47.490;19.030;2022-10-16T00:13:23;100540.09;;;16.78;58.22
67980;BME280;54760;47.490;19.030;2022-10-16T00:15:49;100550.28;;;16.46;58.89
67980;BME280;54760;47.490;19.030;2022-10-16T00:18:14;100540.75;;;16.60;58.93
67980;BME280;54760;47.490;19.030;2022-10-16T00:20:39;100536.78;;;16.61;58.55
67980;BME280;54760;47.490;19.030;2022-10-16T00:23:04;100542.06;;;16.56;58.89
67980;BME280;54760;47.490;19.030;2022-10-16T00:25:30;100547.69;;;16.52;59.23
67980;BME280;54760;47.490;19.030;2022-10-16T00:27:57;100554.66;;;16.57;59.00
67980;BME280;54760;47.490;19.030;2022-10-16T00:30:22;100546.91;;;16.64;58.62
67980;BME280;54760;47.490;19.030;2022-10-16T00:32:48;100561.72;;;16.70;58.71
67980;BME280;54760;47.490;19.030;2022-10-16T00:35:13;100554.63;;;16.69;59.20
67980;BME280;54760;47.490;19.030;2022-10-16T00:37:38;100561.78;;;16.45;59.11
67980;BME280;54760;47.490;19.030;2022-10-16T00:40:04;100563.19;;;16.50;59.01
67980;BME280;54760;47.490;19.030;2022-10-16T00:42:29;100566.72;;;16.63;58.69
67980;BME280;54760;47.490;19.030;2022-10-16T00:44:56;100567.19;;;16.48;59.24
67980;BME280;54760;47.490;19.030;2022-10-16T00:47:26;100553.16;;;16.43;59.22
67980;BME280;54760;47.490;19.030;2022-10-16T00:49:54;100561.00;;;16.44;59.11
67980;BME280;54760;47.490;19.030;2022-10-16T00:52:20;100561.41;;;16.56;58.95
67980;BME280;54760;47.490;19.030;2022-10-16T00:54:46;100557.53;;;16.31;59.67
67980;BME280;54760;47.490;19.030;2022-10-16T00:57:12;100561.22;;;16.37;59.50
67980;BME280;54760;47.490;19.030;2022-10-16T00:59:38;100570.09;;;16.32;61.06
67980;BME280;54760;47.490;19.030;2022-10-16T01:02:05;100573.22;;;16.22;61.10
67980;BME280;54760;47.490;19.030;2022-10-16T01:04:45;100573.84;;;16.38;59.83
67980;BME280;54760;47.490;19.030;2022-10-16T01:15:25;100584.47;;;16.27;58.68
67980;BME280;54760;47.490;19.030;2022-10-16T01:20:20;100581.97;;;15.95;59.97
67980;BME280;54760;47.490;19.030;2022-10-16T01:23:07;100580.97;;;16.14;59.14
67980;BME280;54760;47.490;19.030;2022-10-16T01:28:18;100586.94;;;16.00;59.53
67980;BME280;54760;47.490;19.030;2022-10-16T01:30:46;100592.31;;;15.40;61.40
67980;BME280;54760;47.490;19.030;2022-10-16T01:33:23;100588.72;;;15.69;61.10
67980;BME280;54760;47.490;19.030;2022-10-16T01:35:53;100599.75;;;15.94;60.12
67980;BME280;54760;47.490;19.030;2022-10-16T01:40:50;100595.56;;;15.10;62.34
67980;BME280;54760;47.490;19.030;2022-10-16T01:43:17;100589.91;;;15.01;63.14
67980;BME280;54760;47.490;19.030;2022-10-16T01:45:44;100595.38;;;15.17;62.96
67980;BME280;54760;47.490;19.030;2022-10-16T01:48:10;100596.44;;;15.48;61.88
67980;BME280;54760;47.490;19.030;2022-10-16T01:50:37;100601.62;;;15.59;62.57
67980;BME280;54760;47.490;19.030;2022-10-16T01:53:05;100604.28;;;15.75;61.10
67980;BME280;54760;47.490;19.030;2022-10-16T01:55:32;100607.06;;;15.75;61.00
67980;BME280;54760;47.490;19.030;2022-10-16T01:57:59;100605.50;;;15.62;62.01
67980;BME280;54760;47.490;19.030;2022-10-16T02:00:26;100614.56;;;15.62;61.55
67980;BME280;54760;47.490;19.030;2022-10-16T02:02:51;100608.59;;;15.09;62.80
67980;BME280;54760;47.490;19.030;2022-10-16T02:07:52;100624.63;;;15.27;63.79
67980;BME280;54760;47.490;19.030;2022-10-16T02:10:17;100624.34;;;15.50;62.99
67980;BME280;54760;47.490;19.030;2022-10-16T02:12:45;100619.13;;;15.40;62.26
67980;BME280;54760;47.490;19.030;2022-10-16T02:15:12;100629.31;;;15.43;62.43
67980;BME280;54760;47.490;19.030;2022-10-16T02:17:37;100625.97;;;15.35;63.45
67980;BME280;54760;47.490;19.030;2022-10-16T02:20:03;100623.00;;;15.42;63.25
67980;BME280;54760;47.490;19.030;2022-10-16T02:22:36;100618.41;;;14.82;65.53
67980;BME280;54760;47.490;19.030;2022-10-16T02:25:22;100618.22;;;15.30;63.84
67980;BME280;54760;47.490;19.030;2022-10-16T02:30:38;100621.56;;;15.50;63.43
67980;BME280;54760;47.490;19.030;2022-10-16T02:33:05;100626.81;;;15.20;64.26
67980;BME280;54760;47.490;19.030;2022-10-16T02:35:32;100625.41;;;15.28;63.91
67980;BME280;54760;47.490;19.030;2022-10-16T02:37:57;100622.44;;;15.06;64.21
67980;BME280;54760;47.490;19.030;2022-10-16T02:40:23;100627.91;;;15.22;64.47
67980;BME280;54760;47.490;19.030;2022-10-16T02:42:52;100628.84;;;15.44;63.76
67980;BME280;54760;47.490;19.030;2022-10-16T02:45:18;100632.91;;;14.05;67.93
67980;BME280;54760;47.490;19.030;2022-10-16T02:47:43;100633.03;;;13.81;69.24
67980;BME280;54760;47.490;19.030;2022-10-16T02:50:09;100636.84;;;14.85;65.77
67980;BME280;54760;47.490;19.030;2022-10-16T02:52:34;100631.59;;;15.03;64.87
67980;BME280;54760;47.490;19.030;2022-10-16T02:54:59;100636.25;;;15.06;64.51
67980;BME280;54760;47.490;19.030;2022-10-16T02:57:24;100640.28;;;14.72;65.42
67980;BME280;54760;47.490;19.030;2022-10-16T02:59:50;100643.66;;;14.64;65.81
67980;BME280;54760;47.490;19.030;2022-10-16T03:02:15;100642.72;;;14.06;68.16
67980;BME280;54760;47.490;19.030;2022-10-16T03:04:41;100653.44;;;14.36;67.33
67980;BME280;54760;47.490;19.030;2022-10-16T03:07:06;100642.16;;;13.95;68.32
67980;BME280;54760;47.490;19.030;2022-10-16T03:09:31;100643.94;;;14.37;67.24
67980;BME280;54760;47.490;19.030;2022-10-16T03:11:56;100643.91;;;14.05;67.89
67980;BME280;54760;47.490;19.030;2022-10-16T03:14:21;100649.44;;;14.53;66.53
67980;BME280;54760;47.490;19.030;2022-10-16T03:16:47;100648.75;;;14.49;65.86
67980;BME280;54760;47.490;19.030;2022-10-16T03:19:12;100655.62;;;14.57;65.98
67980;BME280;54760;47.490;19.030;2022-10-16T03:21:37;100651.56;;;14.78;65.42
67980;BME280;54760;47.490;19.030;2022-10-16T03:24:03;100645.81;;;14.56;65.85
67980;BME280;54760;47.490;19.030;2022-10-16T03:26:28;100656.00;;;14.43;65.74
67980;BME280;54760;47.490;19.030;2022-10-16T03:28:53;100660.47;;;14.53;65.46
67980;BME280;54760;47.490;19.030;2022-10-16T03:31:18;100661.81;;;14.61;65.82
67980;BME280;54760;47.490;19.030;2022-10-16T03:33:44;100665.59;;;14.35;66.75
67980;BME280;54760;47.490;19.030;2022-10-16T03:36:09;100675.19;;;13.95;68.35
67980;BME280;54760;47.490;19.030;2022-10-16T03:38:34;100668.81;;;13.98;67.89
67980;BME280;54760;47.490;19.030;2022-10-16T03:40:59;100672.13;;;13.93;68.32
67980;BME280;54760;47.490;19.030;2022-10-16T03:43:25;100679.22;;;13.90;68.46
67980;BME280;54760;47.490;19.030;2022-10-16T03:45:50;100686.72;;;13.34;70.01
67980;BME280;54760;47.490;19.030;2022-10-16T03:48:16;100685.50;;;13.91;68.28
67980;BME280;54760;47.490;19.030;2022-10-16T03:50:41;100689.28;;;13.21;70.76
67980;BME280;54760;47.490;19.030;2022-10-16T03:53:07;100692.91;;;13.38;70.95
67980;BME280;54760;47.490;19.030;2022-10-16T03:55:32;100687.47;;;13.54;70.21
67980;BME280;54760;47.490;19.030;2022-10-16T03:57:57;100686.56;;;13.41;69.80
67980;BME280;54760;47.490;19.030;2022-10-16T04:00:22;100676.38;;;13.77;68.63
67980;BME280;54760;47.490;19.030;2022-10-16T04:02:47;100686.47;;;13.64;69.49
67980;BME280;54760;47.490;19.030;2022-10-16T04:05:13;100675.88;;;13.99;68.37
67980;BME280;54760;47.490;19.030;2022-10-16T04:07:38;100689.47;;;13.34;69.84
67980;BME280;54760;47.490;19.030;2022-10-16T04:10:03;100699.09;;;13.62;69.12
67980;BME280;54760;47.490;19.030;2022-10-16T04:12:29;100689.28;;;13.80;68.98
67980;BME280;54760;47.490;19.030;2022-10-16T04:14:54;100692.38;;;13.82;68.87
67980;BME280;54760;47.490;19.030;2022-10-16T04:17:19;100698.00;;;13.95;68.48
67980;BME280;54760;47.490;19.030;2022-10-16T04:19:44;100693.00;;;13.90;68.56
67980;BME280;54760;47.490;19.030;2022-10-16T04:22:10;100698.13;;;13.88;68.68
67980;BME280;54760;47.490;19.030;2022-10-16T04:24:35;100692.25;;;14.06;67.87
67980;BME280;54760;47.490;19.030;2022-10-16T04:27:00;100703.91;;;13.38;69.91
67980;BME280;54760;47.490;19.030;2022-10-16T04:29:26;100699.09;;;13.81;68.57
67980;BME280;54760;47.490;19.030;2022-10-16T04:31:51;100695.09;;;13.47;69.49
67980;BME280;54760;47.490;19.030;2022-10-16T04:34:16;100695.50;;;14.01;67.83
67980;BME280;54760;47.490;19.030;2022-10-16T04:36:41;100703.59;;;13.92;67.74
67980;BME280;54760;47.490;19.030;2022-10-16T04:39:07;100698.25;;;13.65;68.48
67980;BME280;54760;47.490;19.030;2022-10-16T04:41:32;100705.97;;;13.34;69.27
67980;BME280;54760;47.490;19.030;2022-10-16T04:43:57;100705.16;;;13.14;69.96
67980;BME280;54760;47.490;19.030;2022-10-16T04:46:22;100697.75;;;13.50;69.12
67980;BME280;54760;47.490;19.030;2022-10-16T04:48:47;100704.66;;;13.78;68.48
67980;BME280;54760;47.490;19.030;2022-10-16T04:51:13;100719.06;;;13.26;69.30
67980;BME280;54760;47.490;19.030;2022-10-16T04:53:38;100720.41;;;13.38;69.51
67980;BME280;54760;47.490;19.030;2022-10-16T04:56:03;100722.22;;;13.25;70.22
67980;BME280;54760;47.490;19.030;2022-10-16T04:58:29;100718.41;;;13.19;69.52
67980;BME280;54760;47.490;19.030;2022-10-16T05:00:54;100723.16;;;13.58;68.90
67980;BME280;54760;47.490;19.030;2022-10-16T05:03:19;100725.06;;;13.41;69.78
67980;BME280;54760;47.490;19.030;2022-10-16T05:05:45;100723.28;;;13.51;69.33
67980;BME280;54760;47.490;19.030;2022-10-16T05:08:11;100730.12;;;13.23;69.78
67980;BME280;54760;47.490;19.030;2022-10-16T05:10:36;100716.19;;;13.53;68.70
67980;BME280;54760;47.490;19.030;2022-10-16T05:13:02;100721.09;;;13.42;69.29
67980;BME280;54760;47.490;19.030;2022-10-16T05:15:27;100726.72;;;13.15;69.33
67980;BME280;54760;47.490;19.030;2022-10-16T05:17:53;100723.78;;;13.45;68.82
67980;BME280;54760;47.490;19.030;2022-10-16T05:20:19;100732.41;;;13.67;67.82
67980;BME280;54760;47.490;19.030;2022-10-16T05:22:44;100726.84;;;12.85;70.41
67980;BME280;54760;47.490;19.030;2022-10-16T05:25:09;100738.53;;;12.66;71.25
67980;BME280;54760;47.490;19.030;2022-10-16T05:27:35;100734.50;;;13.40;69.45
67980;BME280;54760;47.490;19.030;2022-10-16T05:30:00;100744.22;;;13.64;68.13
67980;BME280;54760;47.490;19.030;2022-10-16T05:32:25;100740.94;;;13.53;68.68
67980;BME280;54760;47.490;19.030;2022-10-16T05:34:50;100748.13;;;13.67;68.01
67980;BME280;54760;47.490;19.030;2022-10-16T05:37:16;100749.75;;;13.64;68.87
67980;BME280;54760;47.490;19.030;2022-10-16T05:39:41;100751.00;;;13.79;68.20
67980;BME280;54760;47.490;19.030;2022-10-16T05:42:06;100753.47;;;13.94;67.60
67980;BME280;54760;47.490;19.030;2022-10-16T05:44:31;100746.44;;;14.09;67.12
67980;BME280;54760;47.490;19.030;2022-10-16T05:46:57;100756.50;;;13.99;67.37
67980;BME280;54760;47.490;19.030;2022-10-16T05:49:22;100758.19;;;13.54;67.58
67980;BME280;54760;47.490;19.030;2022-10-16T05:51:47;100753.25;;;13.45;68.98
67980;BME280;54760;47.490;19.030;2022-10-16T05:54:12;100761.00;;;13.30;68.88
67980;BME280;54760;47.490;19.030;2022-10-16T05:56:38;100749.37;;;13.42;68.79
67980;BME280;54760;47.490;19.030;2022-10-16T05:59:03;100758.69;;;13.88;67.91
67980;BME280;54760;47.490;19.030;2022-10-16T06:01:29;100769.97;;;13.54;67.56
67980;BME280;54760;47.490;19.030;2022-10-16T06:03:55;100767.03;;;13.22;69.86
67980;BME280;54760;47.490;19.030;2022-10-16T06:06:22;100769.44;;;13.20;69.49
67980;BME280;54760;47.490;19.030;2022-10-16T06:08:48;100777.56;;;12.80;72.41
67980;BME280;54760;47.490;19.030;2022-10-16T06:11:14;100774.78;;;13.70;69.76
67980;BME280;54760;47.490;19.030;2022-10-16T06:13:40;100778.38;;;13.47;67.75
67980;BME280;54760;47.490;19.030;2022-10-16T06:16:07;100787.44;;;13.67;68.51
67980;BME280;54760;47.490;19.030;2022-10-16T06:18:32;100793.69;;;13.48;68.92
67980;BME280;54760;47.490;19.030;2022-10-16T06:20:58;100792.47;;;13.49;68.30
67980;BME280;54760;47.490;19.030;2022-10-16T06:23:23;100787.72;;;13.93;67.78
67980;BME280;54760;47.490;19.030;2022-10-16T06:25:49;100781.91;;;13.87;66.84
67980;BME280;54760;47.490;19.030;2022-10-16T06:28:14;100791.44;;;13.82;66.64
67980;BME280;54760;47.490;19.030;2022-10-16T06:30:40;100792.25;;;14.39;64.42
67980;BME280;54760;47.490;19.030;2022-10-16T06:33:05;100793.63;;;14.47;62.37
67980;BME280;54760;47.490;19.030;2022-10-16T06:35:31;100800.88;;;14.41;62.57
67980;BME280;54760;47.490;19.030;2022-10-16T06:37:57;100814.41;;;14.51;61.42
67980;BME280;54760;47.490;19.030;2022-10-16T06:40:22;100814.47;;;14.28;61.55
67980;BME280;54760;47.490;19.030;2022-10-16T06:42:47;100821.72;;;14.58;61.05
67980;BME280;54760;47.490;19.030;2022-10-16T06:45:13;100820.37;;;14.66;60.92
67980;BME280;54760;47.490;19.030;2022-10-16T06:47:38;100821.13;;;14.50;60.19
67980;BME280;54760;47.490;19.030;2022-10-16T06:50:03;100819.66;;;14.62;60.17
67980;BME280;54760;47.490;19.030;2022-10-16T06:52:29;100818.56;;;14.76;59.29
67980;BME280;54760;47.490;19.030;2022-10-16T06:54:54;100819.59;;;15.75;56.86
67980;BME280;54760;47.490;19.030;2022-10-16T06:57:19;100818.59;;;17.93;51.11
67980;BME280;54760;47.490;19.030;2022-10-16T06:59:44;100820.44;;;19.56;45.56
67980;BME280;54760;47.490;19.030;2022-10-16T07:02:10;100817.25;;;21.02;42.18
67980;BME280;54760;47.490;19.030;2022-10-16T07:04:35;100826.34;;;22.12;39.82
67980;BME280;54760;47.490;19.030;2022-10-16T07:07:00;100827.97;;;22.98;37.29
67980;BME280;54760;47.490;19.030;2022-10-16T07:09:26;100833.78;;;23.35;36.60
67980;BME280;54760;47.490;19.030;2022-10-16T07:11:51;100831.81;;;24.07;35.30
67980;BME280;54760;47.490;19.030;2022-10-16T07:14:17;100823.50;;;24.75;34.20
67980;BME280;54760;47.490;19.030;2022-10-16T07:16:42;100831.84;;;25.55;32.51
67980;BME280;54760;47.490;19.030;2022-10-16T07:19:08;100843.50;;;26.23;31.83
67980;BME280;54760;47.490;19.030;2022-10-16T07:21:33;100841.13;;;25.88;32.18
67980;BME280;54760;47.490;19.030;2022-10-16T07:24:02;100848.84;;;26.33;31.06
67980;BME280;54760;47.490;19.030;2022-10-16T07:26:28;100841.44;;;26.57;30.31
67980;BME280;54760;47.490;19.030;2022-10-16T07:28:54;100846.53;;;26.76;29.66
67980;BME280;54760;47.490;19.030;2022-10-16T07:31:20;100856.72;;;27.06;29.76
67980;BME280;54760;47.490;19.030;2022-10-16T07:33:45;100865.25;;;27.42;29.01
67980;BME280;54760;47.490;19.030;2022-10-16T07:36:12;100868.16;;;27.25;28.54
67980;BME280;54760;47.490;19.030;2022-10-16T07:38:38;100864.16;;;27.67;28.37
67980;BME280;54760;47.490;19.030;2022-10-16T07:41:04;100862.97;;;28.39;27.73
67980;BME280;54760;47.490;19.030;2022-10-16T07:43:30;100862.25;;;29.17;26.16
67980;BME280;54760;47.490;19.030;2022-10-16T07:45:55;100861.81;;;29.56;25.91
67980;BME280;54760;47.490;19.030;2022-10-16T07:48:21;100857.72;;;29.33;26.53
67980;BME280;54760;47.490;19.030;2022-10-16T07:50:46;100867.47;;;29.32;25.98
67980;BME280;54760;47.490;19.030;2022-10-16T07:53:11;100869.00;;;30.26;24.43
67980;BME280;54760;47.490;19.030;2022-10-16T07:55:37;100862.03;;;30.46;24.39
67980;BME280;54760;47.490;19.030;2022-10-16T07:58:02;100871.66;;;30.69;24.20
67980;BME280;54760;47.490;19.030;2022-10-16T08:00:27;100880.63;;;30.23;24.24
67980;BME280;54760;47.490;19.030;2022-10-16T08:02:52;100878.13;;;30.96;24.17
67980;BME280;54760;47.490;19.030;2022-10-16T08:05:18;100882.41;;;30.58;24.34
67980;BME280;54760;47.490;19.030;2022-10-16T08:07:47;100882.47;;;31.50;23.45
67980;BME280;54760;47.490;19.030;2022-10-16T08:10:17;100891.41;;;32.14;22.46
67980;BME280;54760;47.490;19.030;2022-10-16T08:12:42;100883.25;;;32.31;22.01
67980;BME280;54760;47.490;19.030;2022-10-16T08:15:08;100893.50;;;32.34;21.98
67980;BME280;54760;47.490;19.030;2022-10-16T08:17:33;100889.22;;;32.20;22.66
67980;BME280;54760;47.490;19.030;2022-10-16T08:19:58;100894.44;;;32.16;22.25
67980;BME280;54760;47.490;19.030;2022-10-16T08:22:23;100902.63;;;32.40;22.10
67980;BME280;54760;47.490;19.030;2022-10-16T08:24:49;100891.00;;;32.51;21.62
67980;BME280;54760;47.490;19.030;2022-10-16T08:27:14;100891.44;;;32.76;21.65
67980;BME280;54760;47.490;19.030;2022-10-16T08:29:39;100913.38;;;33.04;20.83
67980;BME280;54760;47.490;19.030;2022-10-16T08:32:04;100910.00;;;33.34;20.50
67980;BME280;54760;47.490;19.030;2022-10-16T08:34:30;100910.06;;;33.41;20.89
67980;BME280;54760;47.490;19.030;2022-10-16T08:36:55;100913.41;;;32.62;21.11
67980;BME280;54760;47.490;19.030;2022-10-16T08:39:20;100908.22;;;33.51;20.95
67980;BME280;54760;47.490;19.030;2022-10-16T08:41:54;100920.59;;;31.62;22.89
67980;BME280;54760;47.490;19.030;2022-10-16T08:44:25;100914.03;;;33.74;19.89
67980;BME280;54760;47.490;19.030;2022-10-16T08:47:13;100922.22;;;33.21;20.18
67980;BME280;54760;47.490;19.030;2022-10-16T08:49:41;100919.59;;;32.19;21.48
67980;BME280;54760;47.490;19.030;2022-10-16T08:52:12;100911.41;;;28.97;25.72
67980;BME280;54760;47.490;19.030;2022-10-16T08:54:40;100910.75;;;29.77;25.22
67980;BME280;54760;47.490;19.030;2022-10-16T08:57:14;100907.28;;;32.17;21.93
67980;BME280;54760;47.490;19.030;2022-10-16T08:59:40;100918.00;;;33.15;21.12
67980;BME280;54760;47.490;19.030;2022-10-16T09:02:19;100921.69;;;32.19;22.08
67980;BME280;54760;47.490;19.030;2022-10-16T09:04:50;100922.47;;;30.05;24.69
67980;BME280;54760;47.490;19.030;2022-10-16T09:07:25;100918.84;;;30.74;23.81
67980;BME280;54760;47.490;19.030;2022-10-16T09:18:02;100924.25;;;31.83;23.16
67980;BME280;54760;47.490;19.030;2022-10-16T09:20:44;100922.16;;;33.78;20.04
67980;BME280;54760;47.490;19.030;2022-10-16T09:23:14;100923.09;;;33.73;20.51
67980;BME280;54760;47.490;19.030;2022-10-16T09:25:42;100914.44;;;35.20;18.65
67980;BME280;54760;47.490;19.030;2022-10-16T09:28:07;100922.59;;;35.01;19.40
67980;BME280;54760;47.490;19.030;2022-10-16T09:30:33;100910.66;;;36.21;18.19
67980;BME280;54760;47.490;19.030;2022-10-16T09:32:58;100918.94;;;35.46;18.28
67980;BME280;54760;47.490;19.030;2022-10-16T09:35:31;100918.25;;;36.26;17.92
67980;BME280;54760;47.490;19.030;2022-10-16T09:37:57;100919.63;;;36.42;17.47
67980;BME280;54760;47.490;19.030;2022-10-16T09:42:56;100912.47;;;35.46;18.92
67980;BME280;54760;47.490;19.030;2022-10-16T09:45:23;100914.56;;;38.20;16.31
67980;BME280;54760;47.490;19.030;2022-10-16T09:47:48;100915.66;;;37.81;16.48
67980;BME280;54760;47.490;19.030;2022-10-16T09:50:22;100917.75;;;37.80;16.86
67980;BME280;54760;47.490;19.030;2022-10-16T09:52:48;100922.41;;;37.58;16.82
67980;BME280;54760;47.490;19.030;2022-10-16T09:55:14;100929.22;;;34.66;19.57
67980;BME280;54760;47.490;19.030;2022-10-16T09:57:52;100926.81;;;34.11;19.95
67980;BME280;54760;47.490;19.030;2022-10-16T10:00:17;100924.25;;;34.36;19.44
67980;BME280;54760;47.490;19.030;2022-10-16T10:02:43;100929.78;;;35.95;18.75
67980;BME280;54760;47.490;19.030;2022-10-16T10:05:19;100924.63;;;36.01;17.79
67980;BME280;54760;47.490;19.030;2022-10-16T10:07:52;100928.47;;;36.29;18.27
67980;BME280;54760;47.490;19.030;2022-10-16T10:10:23;100932.28;;;34.83;19.06
67980;BME280;54760;47.490;19.030;2022-10-16T10:12:49;100927.56;;;34.04;19.96
67980;BME280;54760;47.490;19.030;2022-10-16T10:15:14;100921.19;;;33.68;20.62
67980;BME280;54760;47.490;19.030;2022-10-16T10:17:47;100916.66;;;34.23;20.58
67980;BME280;54760;47.490;19.030;2022-10-16T10:23:01;100907.22;;;35.19;19.61
67980;BME280;54760;47.490;19.030;2022-10-16T10:33:58;100910.78;;;32.10;22.39
67980;BME280;54760;47.490;19.030;2022-10-16T10:49:27;100900.47;;;34.69;19.71
67980;BME280;54760;47.490;19.030;2022-10-16T11:02:41;100903.44;;;35.02;19.56
67980;BME280;54760;47.490;19.030;2022-10-16T11:04:56;100892.59;;;35.86;18.86
67980;BME280;54760;47.490;19.030;2022-10-16T11:07:28;100893.41;;;35.24;18.84
67980;BME280;54760;47.490;19.030;2022-10-16T11:12:42;100894.44;;;35.51;18.81
67980;BME280;54760;47.490;19.030;2022-10-16T11:15:14;100887.47;;;35.37;18.81
67980;BME280;54760;47.490;19.030;2022-10-16T11:17:41;100885.25;;;35.75;18.96
67980;BME280;54760;47.490;19.030;2022-10-16T11:22:47;100878.88;;;35.52;19.02
67980;BME280;54760;47.490;19.030;2022-10-16T11:25:14;100871.56;;;36.14;17.89
67980;BME280;54760;47.490;19.030;2022-10-16T11:32:45;100882.91;;;35.34;18.93
67980;BME280;54760;47.490;19.030;2022-10-16T11:35:19;100876.34;;;34.70;19.21
67980;BME280;54760;47.490;19.030;2022-10-16T11:37:45;100869.38;;;33.82;20.67
67980;BME280;54760;47.490;19.030;2022-10-16T11:43:02;100870.34;;;33.13;21.00
67980;BME280;54760;47.490;19.030;2022-10-16T11:47:58;100867.37;;;34.13;20.35
67980;BME280;54760;47.490;19.030;2022-10-16T11:55:41;100864.03;;;34.98;19.38
67980;BME280;54760;47.490;19.030;2022-10-16T11:58:09;100866.12;;;34.75;19.25
67980;BME280;54760;47.490;19.030;2022-10-16T12:00:58;100863.66;;;34.79;19.60
67980;BME280;54760;47.490;19.030;2022-10-16T12:08:23;100859.09;;;34.91;19.74
67980;BME280;54760;47.490;19.030;2022-10-16T12:10:48;100859.66;;;34.67;19.95
67980;BME280;54760;47.490;19.030;2022-10-16T12:13:30;100860.59;;;34.47;19.80
67980;BME280;54760;47.490;19.030;2022-10-16T12:16:06;100843.72;;;34.18;20.18
67980;BME280;54760;47.490;19.030;2022-10-16T12:18:32;100859.00;;;32.85;21.82
67980;BME280;54760;47.490;19.030;2022-10-16T12:20:57;100857.31;;;33.53;20.95
67980;BME280;54760;47.490;19.030;2022-10-16T12:23:24;100843.13;;;34.05;20.32
67980;BME280;54760;47.490;19.030;2022-10-16T12:25:54;100844.81;;;32.85;21.80
67980;BME280;54760;47.490;19.030;2022-10-16T12:28:20;100848.09;;;33.17;21.50
67980;BME280;54760;47.490;19.030;2022-10-16T12:30:59;100857.22;;;33.02;21.76
67980;BME280;54760;47.490;19.030;2022-10-16T12:33:26;100857.91;;;32.46;22.25
67980;BME280;54760;47.490;19.030;2022-10-16T12:35:52;100846.50;;;32.59;22.07
67980;BME280;54760;47.490;19.030;2022-10-16T12:38:25;100854.59;;;32.76;21.70
67980;BME280;54760;47.490;19.030;2022-10-16T12:40:58;100852.19;;;32.39;21.93
67980;BME280;54760;47.490;19.030;2022-10-16T12:43:34;100844.81;;;32.85;21.33
67980;BME280;54760;47.490;19.030;2022-10-16T12:48:34;100853.66;;;31.98;22.27
67980;BME280;54760;47.490;19.030;2022-10-16T12:53:44;100851.16;;;32.49;22.62
67980;BME280;54760;47.490;19.030;2022-10-16T12:56:17;100850.59;;;33.00;21.45
67980;BME280;54760;47.490;19.030;2022-10-16T13:01:23;100857.37;;;33.25;21.33
67980;BME280;54760;47.490;19.030;2022-10-16T13:06:23;100864.19;;;32.32;21.93
67980;BME280;54760;47.490;19.030;2022-10-16T13:09:11;100852.09;;;31.76;22.75
67980;BME280;54760;47.490;19.030;2022-10-16T13:27:05;100866.28;;;32.73;22.33
67980;BME280;54760;47.490;19.030;2022-10-16T13:29:32;100866.78;;;32.63;22.15
67980;BME280;54760;47.490;19.030;2022-10-16T13:31:59;100869.62;;;32.63;21.91
67980;BME280;54760;47.490;19.030;2022-10-16T13:34:25;100871.56;;;32.97;21.65
67980;BME280;54760;47.490;19.030;2022-10-16T13:36:52;100870.16;;;31.73;22.61
67980;BME280;54760;47.490;19.030;2022-10-16T13:39:27;100872.16;;;31.26;23.45
67980;BME280;54760;47.490;19.030;2022-10-16T13:44:27;100868.03;;;31.14;23.95
67980;BME280;54760;47.490;19.030;2022-10-16T13:47:02;100863.38;;;30.58;24.41
67980;BME280;54760;47.490;19.030;2022-10-16T13:49:27;100873.03;;;30.31;24.97
67980;BME280;54760;47.490;19.030;2022-10-16T13:51:56;100867.81;;;29.84;25.24
67980;BME280;54760;47.490;19.030;2022-10-16T13:54:22;100871.69;;;29.44;25.51
67980;BME280;54760;47.490;19.030;2022-10-16T13:56:47;100871.03;;;30.12;24.73
67980;BME280;54760;47.490;19.030;2022-10-16T13:59:26;100875.69;;;30.10;24.98
67980;BME280;54760;47.490;19.030;2022-10-16T14:01:52;100874.00;;;30.52;24.81
67980;BME280;54760;47.490;19.030;2022-10-16T14:04:18;100870.34;;;30.57;25.20
67980;BME280;54760;47.490;19.030;2022-10-16T14:06:44;100877.47;;;29.94;25.12
67980;BME280;54760;47.490;19.030;2022-10-16T14:11:44;100875.47;;;30.40;24.59
67980;BME280;54760;47.490;19.030;2022-10-16T14:14:11;100878.88;;;30.01;25.76
67980;BME280;54760;47.490;19.030;2022-10-16T14:16:37;100881.37;;;29.48;26.15
67980;BME280;54760;47.490;19.030;2022-10-16T14:19:05;100881.88;;;29.22;26.09
67980;BME280;54760;47.490;19.030;2022-10-16T14:21:31;100872.91;;;29.24;26.32
67980;BME280;54760;47.490;19.030;2022-10-16T14:23:57;100873.22;;;29.20;26.28
67980;BME280;54760;47.490;19.030;2022-10-16T14:26:23;100873.44;;;28.98;26.50
67980;BME280;54760;47.490;19.030;2022-10-16T14:28:51;100873.28;;;28.91;26.72
67980;BME280;54760;47.490;19.030;2022-10-16T14:31:32;100884.47;;;28.72;26.70
67980;BME280;54760;47.490;19.030;2022-10-16T14:33:58;100878.41;;;28.27;27.74
67980;BME280;54760;47.490;19.030;2022-10-16T14:36:24;100877.78;;;28.04;27.73
67980;BME280;54760;47.490;19.030;2022-10-16T14:41:27;100878.72;;;27.71;28.35
67980;BME280;54760;47.490;19.030;2022-10-16T14:43:53;100885.97;;;27.39;28.79
67980;BME280;54760;47.490;19.030;2022-10-16T14:46:21;100879.72;;;26.88;29.77